createdAt,value
2023-01-21T00:00:57.799Z,13.00
2023-01-21T00:03:30.498Z,14.93
2023-01-21T00:06:04.844Z,44.50
2023-01-21T00:08:40.404Z,16.10
2023-01-21T00:11:14.936Z,16.23
2023-01-21T00:13:50.275Z,12.77
2023-01-21T00:16:23.161Z,15.57
2023-01-21T00:18:58.176Z,11.53
2023-01-21T00:21:32.409Z,16.03
2023-01-21T00:24:05.290Z,16.47
2023-01-21T00:26:38.069Z,14.43
2023-01-21T00:29:11.350Z,13.87
2023-01-21T00:31:44.274Z,14.23
2023-01-21T00:34:16.974Z,14.33
2023-01-21T00:36:51.126Z,14.07
2023-01-21T00:39:24.104Z,12.53
2023-01-21T00:41:56.885Z,13.43
2023-01-21T00:44:29.578Z,17.53
2023-01-21T00:47:02.286Z,12.43
2023-01-21T00:49:35.151Z,15.77
2023-01-21T00:52:09.278Z,14.70
2023-01-21T00:54:41.986Z,15.47
2023-01-21T00:57:14.877Z,16.13
2023-01-21T00:59:47.964Z,11.77
2023-01-21T01:02:23.083Z,11.97
2023-01-21T01:04:55.880Z,14.40
2023-01-21T01:07:30.030Z,12.43
2023-01-21T01:10:02.780Z,17.07
2023-01-21T01:12:35.597Z,11.53
2023-01-21T01:15:09.062Z,16.07
2023-01-21T01:17:41.944Z,17.43
2023-01-21T01:20:18.111Z,12.33
2023-01-21T01:22:52.371Z,13.53
2023-01-21T01:25:25.105Z,12.33
2023-01-21T01:27:57.914Z,12.23
2023-01-21T01:30:30.893Z,10.57
2023-01-21T01:33:03.840Z,11.93
2023-01-21T01:35:36.678Z,9.03
2023-01-21T01:38:10.898Z,10.07
2023-01-21T01:40:44.061Z,9.37
2023-01-21T01:43:17.753Z,11.60
2023-01-21T01:45:50.980Z,15.20
2023-01-21T01:48:27.388Z,8.63
2023-01-21T01:51:01.897Z,11.87
2023-01-21T01:53:36.649Z,14.90
2023-01-21T01:56:09.756Z,13.80
2023-01-21T01:58:42.789Z,11.40
2023-01-21T02:01:15.709Z,13.63
2023-01-21T02:03:54.403Z,16.40
2023-01-21T02:06:27.479Z,14.77
2023-01-21T02:09:01.585Z,15.93
2023-01-21T02:11:35.470Z,19.47
2023-01-21T02:14:09.302Z,19.97
2023-01-21T02:16:48.345Z,12.83
2023-01-21T02:19:51.207Z,17.33
2023-01-21T02:22:27.490Z,17.77
2023-01-21T02:25:20.780Z,18.30
2023-01-21T02:27:58.017Z,16.23
2023-01-21T02:30:45.592Z,16.60
2023-01-21T02:33:33.177Z,18.70
2023-01-21T02:36:11.466Z,20.87
2023-01-21T02:38:47.571Z,18.93
2023-01-21T02:41:24.354Z,19.27
2023-01-21T02:44:01.820Z,15.00
2023-01-21T02:46:39.529Z,19.57
2023-01-21T02:49:20.726Z,21.27
2023-01-21T02:51:55.600Z,17.07
2023-01-21T02:54:46.779Z,17.90
2023-01-21T02:57:21.375Z,17.10
2023-01-21T02:59:54.654Z,21.03
2023-01-21T03:02:34.520Z,17.70
2023-01-21T03:05:12.556Z,14.67
2023-01-21T03:07:48.158Z,17.97
2023-01-21T03:10:27.837Z,17.53
2023-01-21T03:13:02.648Z,14.47
2023-01-21T03:15:56.667Z,15.67
2023-01-21T03:18:32.261Z,17.60
2023-01-21T03:21:08.016Z,14.87
2023-01-21T03:23:42.341Z,18.83
2023-01-21T03:26:18.153Z,15.27
2023-01-21T03:28:52.590Z,13.07
2023-01-21T03:31:29.017Z,15.27
2023-01-21T03:34:04.285Z,12.60
2023-01-21T03:36:42.610Z,16.33
2023-01-21T03:39:17.078Z,14.50
2023-01-21T03:41:49.658Z,13.47
2023-01-21T03:44:22.571Z,10.97
2023-01-21T03:47:00.742Z,15.90
2023-01-21T03:49:34.830Z,12.73
2023-01-21T03:52:09.889Z,13.17
2023-01-21T03:54:42.737Z,15.43
2023-01-21T03:57:15.515Z,13.97
2023-01-21T03:59:50.137Z,12.57
2023-01-21T04:02:22.858Z,10.53
2023-01-21T04:04:55.670Z,11.07
2023-01-21T04:07:29.812Z,10.37
2023-01-21T04:10:04.752Z,14.23
2023-01-21T04:12:37.476Z,13.27
2023-01-21T04:15:12.551Z,12.27
2023-01-21T04:17:45.248Z,9.83
2023-01-21T04:20:19.141Z,9.83
2023-01-21T04:22:56.004Z,11.10
2023-01-21T04:25:28.761Z,9.67
2023-01-21T04:28:04.522Z,10.33
2023-01-21T04:30:38.255Z,10.37
2023-01-21T04:33:10.945Z,8.57
2023-01-21T04:35:45.735Z,11.60
2023-01-21T04:38:20.034Z,9.17
2023-01-21T04:40:52.821Z,9.23
2023-01-21T04:43:25.584Z,10.23
2023-01-21T04:45:58.474Z,12.27
2023-01-21T04:48:31.224Z,9.23
2023-01-21T04:51:03.959Z,6.93
2023-01-21T04:53:38.072Z,9.13
2023-01-21T04:56:12.205Z,10.73
2023-01-21T04:58:44.930Z,8.80
2023-01-21T05:01:17.655Z,11.50
2023-01-21T05:03:50.466Z,9.30
2023-01-21T05:06:26.521Z,9.73
2023-01-21T05:09:00.677Z,8.80
2023-01-21T05:11:33.510Z,13.00
2023-01-21T05:14:06.262Z,11.67
2023-01-21T05:16:41.875Z,12.23
2023-01-21T05:19:14.618Z,11.80
2023-01-21T05:21:47.421Z,12.27
2023-01-21T05:24:21.630Z,12.23
2023-01-21T05:26:54.529Z,12.77
2023-01-21T05:29:27.366Z,10.13
2023-01-21T05:32:00.236Z,10.73
2023-01-21T05:34:32.977Z,9.80
2023-01-21T05:37:06.964Z,10.93
2023-01-21T05:39:44.528Z,16.53
2023-01-21T05:42:17.198Z,13.70
2023-01-21T05:44:49.854Z,14.60
2023-01-21T05:47:22.562Z,9.03
2023-01-21T05:49:55.380Z,10.30
2023-01-21T05:52:28.208Z,9.60
2023-01-21T05:55:03.049Z,11.23
2023-01-21T05:57:35.995Z,9.37
2023-01-21T06:00:09.682Z,8.60
2023-01-21T06:02:42.495Z,15.30
2023-01-21T06:05:17.673Z,10.33
2023-01-21T06:07:51.213Z,10.40
2023-01-21T06:10:25.388Z,11.37
2023-01-21T06:12:58.099Z,8.87
2023-01-21T06:15:33.156Z,11.83
2023-01-21T06:18:06.172Z,11.33
2023-01-21T06:20:39.016Z,12.50
2023-01-21T06:23:12.061Z,13.30
2023-01-21T06:25:48.894Z,14.30
2023-01-21T06:28:21.656Z,11.13
2023-01-21T06:30:54.478Z,15.13
2023-01-21T06:33:27.217Z,14.07
2023-01-21T06:36:01.630Z,13.60
2023-01-21T06:38:35.986Z,12.00
2023-01-21T06:41:10.237Z,13.97
2023-01-21T06:43:45.120Z,16.50
2023-01-21T06:46:18.113Z,14.87
2023-01-21T06:48:52.082Z,18.30
2023-01-21T06:51:24.857Z,16.03
2023-01-21T06:53:57.625Z,16.00
2023-01-21T06:56:31.661Z,15.07
2023-01-21T06:59:04.699Z,15.10
2023-01-21T07:01:37.440Z,17.33
2023-01-21T07:04:10.223Z,19.33
2023-01-21T07:06:43.467Z,16.37
2023-01-21T07:09:16.178Z,17.50
2023-01-21T07:11:51.641Z,19.17
2023-01-21T07:14:27.839Z,20.13
2023-01-21T07:17:00.513Z,21.33
2023-01-21T07:19:33.342Z,17.53
2023-01-21T07:22:06.144Z,18.17
2023-01-21T07:24:39.049Z,21.30
2023-01-21T07:27:13.055Z,19.37
2023-01-21T07:29:48.277Z,20.63
2023-01-21T07:32:20.953Z,20.00
2023-01-21T07:34:53.673Z,18.43
2023-01-21T07:37:26.352Z,19.37
2023-01-21T07:39:59.352Z,17.30
2023-01-21T07:42:33.506Z,18.50
2023-01-21T07:45:06.748Z,17.07
2023-01-21T07:47:39.996Z,17.27
2023-01-21T07:50:12.929Z,19.20
2023-01-21T07:52:45.757Z,21.90
2023-01-21T07:55:19.191Z,17.63
2023-01-21T07:57:53.651Z,18.43
2023-01-21T08:00:27.667Z,17.17
2023-01-21T08:03:00.483Z,17.93
2023-01-21T08:05:33.441Z,19.87
2023-01-21T08:08:06.329Z,18.33
2023-01-21T08:10:41.777Z,18.03
2023-01-21T08:13:15.842Z,16.30
2023-01-21T08:15:50.461Z,18.43
2023-01-21T08:18:26.371Z,19.57
2023-01-21T08:20:59.997Z,17.97
2023-01-21T08:23:34.601Z,17.40
2023-01-21T08:26:07.671Z,17.80
2023-01-21T08:28:41.706Z,20.10
2023-01-21T08:31:17.963Z,19.37
2023-01-21T08:33:50.849Z,14.33
2023-01-21T08:36:23.534Z,16.40
2023-01-21T08:38:58.516Z,16.70
2023-01-21T08:41:31.368Z,19.07
2023-01-21T08:44:05.548Z,16.77
2023-01-21T08:46:38.193Z,16.67
2023-01-21T08:49:10.859Z,17.07
2023-01-21T08:51:43.806Z,16.07
2023-01-21T08:54:16.887Z,16.73
2023-01-21T08:56:49.548Z,17.70
2023-01-21T08:59:28.910Z,16.30
2023-01-21T09:02:01.844Z,18.77
2023-01-21T09:04:34.813Z,16.20
2023-01-21T09:07:07.542Z,17.10
2023-01-21T09:09:44.600Z,12.83
2023-01-21T09:12:17.486Z,16.13
2023-01-21T09:14:51.541Z,19.60
2023-01-21T09:17:24.334Z,16.73
2023-01-21T09:19:57.029Z,16.53
2023-01-21T09:22:30.092Z,17.00
2023-01-21T09:25:10.164Z,17.53
2023-01-21T09:27:42.882Z,18.40
2023-01-21T09:30:17.980Z,14.30
2023-01-21T09:32:50.893Z,15.13
2023-01-21T09:35:26.409Z,17.03
2023-01-21T09:37:59.260Z,19.83
2023-01-21T09:40:31.985Z,16.37
2023-01-21T09:43:13.557Z,16.93
2023-01-21T09:45:48.996Z,15.80
2023-01-21T09:48:27.629Z,17.73
2023-01-21T09:51:08.604Z,18.50
2023-01-21T09:53:45.182Z,17.20
2023-01-21T09:56:24.523Z,17.90
2023-01-21T09:59:00.096Z,18.00
2023-01-21T10:01:34.891Z,19.03
2023-01-21T10:04:24.149Z,21.47
2023-01-21T10:07:00.820Z,17.17
2023-01-21T10:09:43.784Z,16.93
2023-01-21T10:12:21.953Z,17.77
2023-01-21T10:15:07.806Z,18.43
2023-01-21T10:17:47.536Z,16.30
2023-01-21T10:20:23.720Z,15.53
2023-01-21T10:22:58.733Z,17.97
2023-01-21T10:25:32.420Z,10.80
2023-01-21T10:28:07.488Z,13.07
2023-01-21T10:30:43.019Z,18.47
2023-01-21T10:33:32.920Z,16.03
2023-01-21T10:36:29.813Z,16.00
2023-01-21T10:39:05.705Z,16.77
2023-01-21T10:41:48.575Z,15.57
2023-01-21T10:44:29.517Z,13.83
2023-01-21T10:47:09.706Z,17.10
2023-01-21T10:49:49.942Z,15.03
2023-01-21T10:52:30.022Z,17.40
2023-01-21T10:55:06.599Z,17.77
2023-01-21T10:57:51.899Z,14.80
2023-01-21T11:00:26.525Z,13.63
2023-01-21T11:03:01.013Z,14.13
2023-01-21T11:05:35.339Z,15.53
2023-01-21T11:08:08.845Z,17.67
2023-01-21T11:10:41.752Z,14.83
2023-01-21T11:13:14.970Z,13.00
2023-01-21T11:15:50.479Z,13.03
2023-01-21T11:18:31.343Z,14.80
2023-01-21T11:21:13.141Z,13.23
2023-01-21T11:23:53.766Z,17.27
2023-01-21T11:26:27.978Z,16.40
2023-01-21T11:29:13.768Z,13.73
2023-01-21T11:31:48.502Z,12.80
2023-01-21T11:34:22.262Z,14.90
2023-01-21T11:36:57.934Z,13.23
2023-01-21T11:39:32.608Z,8.70
2023-01-21T11:42:07.071Z,13.40
2023-01-21T11:44:50.991Z,15.90
2023-01-21T11:47:28.781Z,15.87
2023-01-21T11:50:12.272Z,12.90
2023-01-21T11:52:46.402Z,13.50
2023-01-21T11:55:20.701Z,13.13
2023-01-21T11:57:54.515Z,11.67
2023-01-21T12:00:28.134Z,14.17
2023-01-21T12:03:02.278Z,10.93
2023-01-21T12:05:36.700Z,12.50
2023-01-21T12:08:21.694Z,11.20
2023-01-21T12:10:55.914Z,10.00
2023-01-21T12:13:32.895Z,12.40
2023-01-21T12:16:23.599Z,12.13
2023-01-21T12:19:16.300Z,12.83
2023-01-21T12:21:59.368Z,10.40
2023-01-21T12:24:38.897Z,13.73
2023-01-21T12:27:17.641Z,9.07
2023-01-21T12:29:56.064Z,15.00
2023-01-21T12:32:30.537Z,10.77
2023-01-21T12:35:04.376Z,14.37
2023-01-21T12:37:41.149Z,9.40
2023-01-21T12:40:17.380Z,10.80
2023-01-21T12:42:54.186Z,9.53
2023-01-21T12:45:29.677Z,10.03
2023-01-21T12:48:05.763Z,9.73
2023-01-21T12:50:41.310Z,8.73
2023-01-21T12:53:17.132Z,5.53
2023-01-21T12:56:10.668Z,9.50
2023-01-21T12:58:51.567Z,9.77
2023-01-21T13:01:36.845Z,9.07
2023-01-21T13:04:18.335Z,9.47
2023-01-21T13:06:55.032Z,7.77
2023-01-21T13:09:32.203Z,9.30
2023-01-21T13:12:06.843Z,9.57
2023-01-21T13:14:42.059Z,10.60
2023-01-21T13:17:17.402Z,10.20
2023-01-21T13:19:50.377Z,10.63
2023-01-21T13:22:31.056Z,9.80
2023-01-21T13:25:11.855Z,7.93
2023-01-21T13:27:47.919Z,7.23
2023-01-21T13:30:26.777Z,6.53
2023-01-21T13:33:13.446Z,6.27
2023-01-21T13:35:49.075Z,7.60
2023-01-21T13:38:26.175Z,10.60
2023-01-21T13:41:06.209Z,8.47
2023-01-21T13:43:54.544Z,6.17
2023-01-21T13:46:39.439Z,7.77
2023-01-21T13:49:25.226Z,8.67
2023-01-21T13:52:02.627Z,5.97
2023-01-21T13:54:50.205Z,6.07
2023-01-21T13:57:42.075Z,6.63
2023-01-21T14:00:17.390Z,5.13
2023-01-21T14:02:54.566Z,5.87
2023-01-21T14:05:31.001Z,8.10
2023-01-21T14:08:09.366Z,5.97
2023-01-21T14:10:44.693Z,5.13
2023-01-21T14:13:44.369Z,6.00
2023-01-21T14:16:31.887Z,6.57
2023-01-21T14:19:25.356Z,6.87
2023-01-21T14:22:04.967Z,9.00
2023-01-21T14:24:47.238Z,4.43
2023-01-21T14:27:24.442Z,4.97
2023-01-21T14:30:04.349Z,4.37
2023-01-21T14:32:44.161Z,3.33
2023-01-21T14:35:19.577Z,4.03
2023-01-21T14:37:57.306Z,5.80
2023-01-21T14:40:31.270Z,4.40
2023-01-21T14:43:04.030Z,3.07
2023-01-21T14:45:52.814Z,4.03
2023-01-21T14:48:29.231Z,2.97
2023-01-21T14:51:12.731Z,3.40
2023-01-21T14:53:48.317Z,3.17
2023-01-21T14:56:32.669Z,4.07
2023-01-21T14:59:06.439Z,4.23
2023-01-21T15:01:41.568Z,4.03
2023-01-21T15:04:25.928Z,4.23
2023-01-21T15:07:00.219Z,3.27
2023-01-21T15:09:35.976Z,3.23
2023-01-21T15:12:13.100Z,4.33
2023-01-21T15:14:46.556Z,3.63
2023-01-21T15:17:40.649Z,1.90
2023-01-21T15:20:32.239Z,4.00
2023-01-21T15:23:17.947Z,2.97
2023-01-21T15:26:05.717Z,4.23
2023-01-21T15:28:45.339Z,2.53
2023-01-21T15:31:36.857Z,4.13
2023-01-21T15:34:14.524Z,4.63
2023-01-21T15:36:50.568Z,3.33
2023-01-21T15:39:26.348Z,3.30
2023-01-21T15:42:06.526Z,4.10
2023-01-21T15:44:45.327Z,3.47
2023-01-21T15:47:38.721Z,2.07
2023-01-21T15:50:20.544Z,3.63
2023-01-21T15:53:04.355Z,2.57
2023-01-21T15:55:51.267Z,5.40
2023-01-21T15:58:27.726Z,3.27
2023-01-21T16:01:04.117Z,2.27
2023-01-21T16:03:39.227Z,2.90
2023-01-21T16:06:17.259Z,4.20
2023-01-21T16:08:57.698Z,4.00
2023-01-21T16:11:38.059Z,3.37
2023-01-21T16:14:19.466Z,3.97
2023-01-21T16:16:57.076Z,4.00
2023-01-21T16:19:31.725Z,4.30
2023-01-21T16:22:09.912Z,3.30
2023-01-21T16:24:44.534Z,4.77
2023-01-21T16:27:18.140Z,6.13
2023-01-21T16:29:57.709Z,5.67
2023-01-21T16:32:32.329Z,6.77
2023-01-21T16:35:05.424Z,5.33
2023-01-21T16:37:38.214Z,5.60
2023-01-21T16:40:22.789Z,4.83
2023-01-21T16:43:06.441Z,1.67
2023-01-21T16:45:42.873Z,3.80
2023-01-21T16:48:19.577Z,5.03
2023-01-21T16:50:52.816Z,5.70
2023-01-21T16:53:26.988Z,6.93
2023-01-21T16:56:00.497Z,3.63
2023-01-21T16:58:36.751Z,3.97
2023-01-21T17:01:13.496Z,3.80
2023-01-21T17:03:47.156Z,3.50
2023-01-21T17:06:21.669Z,4.40
2023-01-21T17:08:57.563Z,3.97
2023-01-21T17:11:31.419Z,2.70
2023-01-21T17:14:08.785Z,4.33
2023-01-21T17:16:43.893Z,4.70
2023-01-21T17:19:23.961Z,6.60
2023-01-21T17:22:01.383Z,3.03
2023-01-21T17:24:38.517Z,5.90
2023-01-21T17:27:16.227Z,3.13
2023-01-21T17:29:49.082Z,2.40
2023-01-21T17:32:27.869Z,6.30
2023-01-21T17:35:10.748Z,7.23
2023-01-21T17:37:44.283Z,5.67
2023-01-21T17:40:26.293Z,3.40
2023-01-21T17:43:00.024Z,6.83
2023-01-21T17:45:37.014Z,3.57
2023-01-21T17:48:21.106Z,3.63
2023-01-21T17:51:08.884Z,5.17
2023-01-21T17:53:46.256Z,5.43
2023-01-21T17:56:34.375Z,5.43
2023-01-21T17:59:27.974Z,3.30
2023-01-21T18:02:01.821Z,5.63
2023-01-21T18:04:35.990Z,3.70
2023-01-21T18:07:16.831Z,4.40
2023-01-21T18:09:49.803Z,5.83
2023-01-21T18:12:22.923Z,3.50
2023-01-21T18:14:55.715Z,2.50
2023-01-21T18:17:28.484Z,6.80
2023-01-21T18:20:02.520Z,8.80
2023-01-21T18:22:36.504Z,3.73
2023-01-21T18:25:10.104Z,5.20
2023-01-21T18:27:44.893Z,5.40
2023-01-21T18:30:19.311Z,6.30
2023-01-21T18:32:52.499Z,6.50
2023-01-21T18:35:28.429Z,3.43
2023-01-21T18:38:01.232Z,7.60
2023-01-21T18:40:34.119Z,4.50
2023-01-21T18:43:06.990Z,6.20
2023-01-21T18:45:40.252Z,4.50
2023-01-21T18:48:14.823Z,5.47
2023-01-21T18:50:48.910Z,5.40
2023-01-21T18:53:21.709Z,4.33
2023-01-21T18:55:54.752Z,5.67
2023-01-21T18:58:27.517Z,5.43
2023-01-21T19:01:10.990Z,5.47
2023-01-21T19:03:54.680Z,7.03
2023-01-21T19:06:28.812Z,4.20
2023-01-21T19:09:01.527Z,4.67
2023-01-21T19:11:34.381Z,5.97
2023-01-21T19:14:07.136Z,4.80
2023-01-21T19:16:40.330Z,5.20
2023-01-21T19:19:13.317Z,4.33
2023-01-21T19:21:47.453Z,5.03
2023-01-21T19:24:20.530Z,7.00
2023-01-21T19:26:53.325Z,7.80
2023-01-21T19:29:28.341Z,4.17
2023-01-21T19:32:01.034Z,4.10
2023-01-21T19:34:33.745Z,4.57
2023-01-21T19:37:11.064Z,8.43
2023-01-21T19:39:44.075Z,6.17
2023-01-21T19:42:17.878Z,5.60
2023-01-21T19:44:50.695Z,5.07
2023-01-21T19:47:25.955Z,6.63
2023-01-21T19:49:58.782Z,3.17
2023-01-21T19:52:33.419Z,4.63
2023-01-21T19:55:06.797Z,5.47
2023-01-21T19:57:44.145Z,5.03
2023-01-21T20:00:22.536Z,5.33
2023-01-21T20:02:55.349Z,5.10
2023-01-21T20:05:29.894Z,5.43
2023-01-21T20:08:04.116Z,4.67
2023-01-21T20:10:37.047Z,5.40
2023-01-21T20:13:11.934Z,3.93
2023-01-21T20:15:48.855Z,4.30
2023-01-21T20:18:24.356Z,6.10
2023-01-21T20:20:57.041Z,6.23
2023-01-21T20:23:32.526Z,5.63
2023-01-21T20:26:07.790Z,7.50
2023-01-21T20:28:43.336Z,4.57
2023-01-21T20:31:16.116Z,7.40
2023-01-21T20:33:48.899Z,6.40
2023-01-21T20:36:25.538Z,6.27
2023-01-21T20:38:59.611Z,6.57
2023-01-21T20:41:32.238Z,7.90
2023-01-21T20:44:06.817Z,6.43
2023-01-21T20:46:39.873Z,10.80
2023-01-21T20:49:13.272Z,7.70
2023-01-21T20:51:45.950Z,7.17
2023-01-21T20:54:20.001Z,6.00
2023-01-21T20:56:52.778Z,8.40
2023-01-21T20:59:25.513Z,7.57
2023-01-21T21:01:58.725Z,6.50
2023-01-21T21:04:31.648Z,7.03
2023-01-21T21:07:04.475Z,5.73
2023-01-21T21:09:39.754Z,6.00
2023-01-21T21:12:12.491Z,6.73
2023-01-21T21:14:45.196Z,7.10
2023-01-21T21:17:17.976Z,8.57
2023-01-21T21:19:50.676Z,7.47
2023-01-21T21:22:26.268Z,7.40
2023-01-21T21:25:00.396Z,11.03
2023-01-21T21:27:36.412Z,8.33
2023-01-21T21:30:12.142Z,5.23
2023-01-21T21:32:44.809Z,5.67
2023-01-21T21:35:21.959Z,7.27
2023-01-21T21:37:55.615Z,6.90
2023-01-21T21:40:30.338Z,7.13
2023-01-21T21:43:23.310Z,7.60
2023-01-21T21:46:13.520Z,4.70
2023-01-21T21:48:46.391Z,5.67
2023-01-21T21:51:19.538Z,6.73
2023-01-21T21:53:52.500Z,6.63
2023-01-21T21:56:26.508Z,6.63
2023-01-21T21:58:59.258Z,4.83
2023-01-21T22:01:32.222Z,4.50
2023-01-21T22:04:05.329Z,6.40
2023-01-21T22:06:38.087Z,6.97
2023-01-21T22:09:11.080Z,6.50
2023-01-21T22:11:45.376Z,6.80
2023-01-21T22:14:20.418Z,7.37
2023-01-21T22:16:53.994Z,7.67
2023-01-21T22:19:28.209Z,6.43
2023-01-21T22:22:00.924Z,4.57
2023-01-21T22:24:33.665Z,5.20
2023-01-21T22:27:08.640Z,5.13
2023-01-21T22:29:41.477Z,4.37
2023-01-21T22:32:15.926Z,6.17
2023-01-21T22:34:48.651Z,4.63
2023-01-21T22:37:21.466Z,6.03
2023-01-21T22:39:54.154Z,5.13
2023-01-21T22:42:28.244Z,5.83
2023-01-21T22:45:00.979Z,5.13
2023-01-21T22:47:34.813Z,4.83
2023-01-21T22:50:10.208Z,4.43
2023-01-21T22:52:42.791Z,4.37
2023-01-21T22:55:15.868Z,5.30
2023-01-21T22:57:50.186Z,4.37
2023-01-21T23:00:34.094Z,5.53
2023-01-21T23:03:07.487Z,5.53
2023-01-21T23:05:40.263Z,5.30
2023-01-21T23:08:15.296Z,4.87
2023-01-21T23:10:51.124Z,3.93
2023-01-21T23:13:26.367Z,4.80
2023-01-21T23:16:01.541Z,6.63
2023-01-21T23:18:36.169Z,5.40
2023-01-21T23:21:11.293Z,8.60
2023-01-21T23:23:46.680Z,4.40
2023-01-21T23:26:20.198Z,4.90
2023-01-21T23:28:56.735Z,5.83
2023-01-21T23:31:29.711Z,6.43
2023-01-21T23:34:03.281Z,6.00
2023-01-21T23:36:36.111Z,7.23
2023-01-21T23:39:09.036Z,8.30
2023-01-21T23:41:41.800Z,5.23
2023-01-21T23:44:16.012Z,4.20
2023-01-21T23:46:48.664Z,5.70
2023-01-21T23:49:22.710Z,4.53
2023-01-21T23:51:55.401Z,6.43
2023-01-21T23:54:28.095Z,6.37
2023-01-21T23:57:02.744Z,5.53
2023-01-21T23:59:36.829Z,4.60
